Time;durP1;ratioP1;P1;durP2;ratioP2;P2;SDS_P1;SDS_P2;PMS_P1;PMS_P2;Temp;Humidity;BMP_temperature;BMP_pressure;BME280_temperature;BME280_humidity;BME280_pressure;Samples;Min_cycle;Max_cycle;Signal;HPM_P1;HPM_P2
2020/12/31 00:01:43;;;;;;;20.50;12.55;;;10.80;80.90;;;;;;5094481;28;20078;-42
2020/12/31 00:04:08;;;;;;;20.13;11.93;;;10.80;80.80;;;;;;5095223;28;20085;-42
2020/12/31 00:06:34;;;;;;;21.95;12.18;;;10.80;80.70;;;;;;5094803;28;20396;-42
2020/12/31 00:09:00;;;;;;;19.30;12.77;;;10.80;80.70;;;;;;5095629;28;20042;-41
2020/12/31 00:11:25;;;;;;;20.15;11.73;;;10.90;80.70;;;;;;5098549;28;20027;-43
2020/12/31 00:13:51;;;;;;;22.90;13.63;;;10.80;80.50;;;;;;5099078;28;20110;-42
2020/12/31 00:16:17;;;;;;;24.80;12.85;;;10.80;80.40;;;;;;5099204;28;20044;-42
2020/12/31 00:18:42;;;;;;;21.92;12.85;;;10.80;80.30;;;;;;5098692;28;20102;-41
2020/12/31 00:21:08;;;;;;;28.27;13.07;;;10.80;80.30;;;;;;5098515;28;20036;-42
2020/12/31 00:23:34;;;;;;;20.42;12.77;;;10.80;80.20;;;;;;5099032;28;20024;-42
2020/12/31 00:25:59;;;;;;;23.23;13.77;;;10.80;80.20;;;;;;5098763;28;20024;-42
2020/12/31 00:28:25;;;;;;;23.25;12.93;;;10.80;80.20;;;;;;5099012;28;20063;-41
2020/12/31 00:30:51;;;;;;;23.92;14.07;;;10.80;80.20;;;;;;5098576;28;20057;-43
2020/12/31 00:33:19;;;;;;;27.42;13.73;;;10.80;80.20;;;;;;5098890;28;20031;-42
2020/12/31 00:35:56;;;;;;;24.15;13.88;;;10.70;80.00;;;;;;5098276;28;20099;-41
2020/12/31 00:38:23;;;;;;;20.30;12.77;;;10.70;79.90;;;;;;5096624;28;20129;-41
2020/12/31 00:40:49;;;;;;;23.63;13.57;;;10.70;80.00;;;;;;5097817;28;20031;-42
2020/12/31 00:43:15;;;;;;;23.40;14.48;;;10.70;79.70;;;;;;5098322;28;20024;-41
2020/12/31 00:45:40;;;;;;;19.13;13.35;;;10.70;79.70;;;;;;5098531;28;20016;-42
2020/12/31 00:48:06;;;;;;;21.10;13.40;;;10.70;79.70;;;;;;5099386;28;20028;-41
2020/12/31 00:50:32;;;;;;;25.65;14.18;;;10.60;79.60;;;;;;5098215;28;20030;-42
2020/12/31 00:52:58;;;;;;;24.17;14.45;;;10.60;79.60;;;;;;5097921;28;20421;-41
2020/12/31 00:55:23;;;;;;;24.55;14.88;;;10.60;79.50;;;;;;5095962;28;20032;-42
2020/12/31 00:57:49;;;;;;;30.58;15.73;;;10.60;79.40;;;;;;5095546;28;20016;-41
2020/12/31 01:00:15;;;;;;;25.73;14.40;;;10.50;79.30;;;;;;5097953;28;20106;-43
2020/12/31 01:02:41;;;;;;;28.65;15.35;;;10.50;79.40;;;;;;5097922;28;20421;-42
2020/12/31 01:05:10;;;;;;;24.45;14.63;;;10.40;79.40;;;;;;5097604;28;20020;-42
2020/12/31 01:07:36;;;;;;;24.37;14.90;;;10.40;79.50;;;;;;5098104;28;20020;-42
2020/12/31 01:10:05;;;;;;;20.73;13.13;;;10.40;79.50;;;;;;5099471;28;20414;-41
2020/12/31 01:12:31;;;;;;;25.55;14.13;;;10.30;79.60;;;;;;5098966;28;20062;-41
2020/12/31 01:14:57;;;;;;;27.08;13.45;;;10.30;79.60;;;;;;5099401;28;20055;-41
2020/12/31 01:17:27;;;;;;;24.23;14.48;;;10.30;79.70;;;;;;5098861;28;20108;-42
2020/12/31 01:19:53;;;;;;;21.48;13.10;;;10.30;79.70;;;;;;5098704;28;20100;-41
2020/12/31 01:22:19;;;;;;;25.17;14.77;;;10.20;79.50;;;;;;5098277;28;20036;-42
2020/12/31 01:24:45;;;;;;;24.95;13.38;;;10.20;79.50;;;;;;5096036;28;20032;-42
2020/12/31 01:27:14;;;;;;;25.30;13.68;;;10.10;79.40;;;;;;5088845;28;20157;-42
2020/12/31 01:29:40;;;;;;;22.50;13.52;;;10.10;79.30;;;;;;5089487;28;20072;-44
2020/12/31 01:32:06;;;;;;;21.13;12.82;;;10.10;79.40;;;;;;5078926;28;20101;-42
2020/12/31 01:34:33;;;;;;;22.30;13.85;;;10.00;79.30;;;;;;5078732;28;20338;-41
2020/12/31 01:36:59;;;;;;;25.73;14.00;;;10.00;79.50;;;;;;5077588;28;20020;-41
2020/12/31 01:39:25;;;;;;;25.10;14.68;;;9.90;79.50;;;;;;5076626;28;20040;-42
2020/12/31 01:41:51;;;;;;;27.25;15.43;;;9.90;79.60;;;;;;5076717;28;20036;-42
2020/12/31 01:44:17;;;;;;;27.48;14.55;;;9.80;79.60;;;;;;5078035;28;20030;-41
2020/12/31 01:46:48;;;;;;;24.35;14.73;;;9.80;79.60;;;;;;5078159;28;20016;-42
2020/12/31 01:49:17;;;;;;;29.77;14.88;;;9.70;79.60;;;;;;5079904;28;20039;-42
2020/12/31 01:51:45;;;;;;;31.60;16.30;;;9.70;79.60;;;;;;5095878;28;20089;-41
2020/12/31 01:54:14;;;;;;;25.83;14.68;;;9.70;79.70;;;;;;5096823;28;20151;-42
2020/12/31 01:56:42;;;;;;;26.25;15.82;;;9.70;79.60;;;;;;5095786;28;20023;-41
2020/12/31 01:59:09;;;;;;;29.52;16.98;;;9.60;79.60;;;;;;5095707;28;20387;-42
2020/12/31 02:01:34;;;;;;;30.48;16.38;;;9.60;79.70;;;;;;5095607;28;20043;-43
2020/12/31 02:04:00;;;;;;;24.83;16.00;;;9.60;79.60;;;;;;5096986;28;20331;-43
2020/12/31 02:06:28;;;;;;;32.35;15.48;;;9.50;79.70;;;;;;5096409;28;20039;-42
2020/12/31 02:08:54;;;;;;;26.67;15.82;;;9.50;79.80;;;;;;5096917;28;20036;-41
2020/12/31 02:11:23;;;;;;;25.33;15.80;;;9.50;79.70;;;;;;5096402;28;20016;-41
2020/12/31 02:13:49;;;;;;;27.80;15.13;;;9.40;79.70;;;;;;5096547;28;20028;-41
2020/12/31 02:16:16;;;;;;;27.88;14.80;;;9.40;79.80;;;;;;5096253;28;20028;-42
2020/12/31 02:18:54;;;;;;;22.65;14.50;;;9.30;79.80;;;;;;5096428;28;20078;-41
2020/12/31 02:21:23;;;;;;;26.13;14.35;;;9.30;79.80;;;;;;5096348;28;20027;-41
2020/12/31 02:23:49;;;;;;;25.65;14.40;;;9.30;79.80;;;;;;5096464;28;20111;-41
2020/12/31 02:26:16;;;;;;;26.33;14.93;;;9.20;79.80;;;;;;5096438;28;20118;-42
2020/12/31 02:28:41;;;;;;;26.13;14.13;;;9.20;79.90;;;;;;5096471;28;20028;-41
2020/12/31 02:31:07;;;;;;;26.60;15.60;;;9.20;80.00;;;;;;5096708;28;20298;-41
2020/12/31 02:33:33;;;;;;;26.13;14.93;;;9.10;79.90;;;;;;5097067;28;20087;-42
2020/12/31 02:35:59;;;;;;;29.92;14.80;;;9.10;80.00;;;;;;5097648;28;20478;-42
2020/12/31 02:38:25;;;;;;;24.75;14.02;;;9.10;80.10;;;;;;5097419;28;20036;-41
2020/12/31 02:40:50;;;;;;;24.90;14.57;;;9.00;80.10;;;;;;5095615;28;20453;-42
2020/12/31 02:43:16;;;;;;;26.05;14.57;;;9.00;80.10;;;;;;5096359;28;20169;-41
2020/12/31 02:45:42;;;;;;;26.20;13.98;;;9.00;80.20;;;;;;5095625;28;20034;-43
2020/12/31 02:48:07;;;;;;;23.23;13.23;;;9.00;80.30;;;;;;5095977;28;20039;-41
2020/12/31 02:50:33;;;;;;;27.58;15.02;;;9.00;80.30;;;;;;5096352;28;20055;-42
2020/12/31 02:52:59;;;;;;;22.58;13.30;;;8.90;80.20;;;;;;5095022;28;20016;-42
2020/12/31 02:55:25;;;;;;;25.10;14.02;;;8.90;80.30;;;;;;5096130;28;20024;-42
2020/12/31 02:57:50;;;;;;;25.50;14.05;;;8.90;80.30;;;;;;5096003;28;20027;-41
2020/12/31 03:00:16;;;;;;;23.13;13.95;;;8.80;80.30;;;;;;5095931;28;20023;-42
2020/12/31 03:02:42;;;;;;;24.20;13.57;;;8.80;80.30;;;;;;5095902;28;20070;-41
2020/12/31 03:05:07;;;;;;;26.67;13.55;;;8.80;80.40;;;;;;5095699;28;20031;-42
2020/12/31 03:07:33;;;;;;;29.17;14.50;;;8.80;80.50;;;;;;5095448;28;20074;-42
2020/12/31 03:09:59;;;;;;;24.63;13.75;;;8.70;80.40;;;;;;5096002;28;20031;-41
2020/12/31 03:12:25;;;;;;;26.67;15.13;;;8.70;80.50;;;;;;5095451;28;20052;-45
2020/12/31 03:14:51;;;;;;;24.70;14.13;;;8.70;80.50;;;;;;5095590;28;20059;-41
2020/12/31 03:17:16;;;;;;;23.33;13.98;;;8.70;80.50;;;;;;5095524;28;20020;-42
2020/12/31 03:19:42;;;;;;;25.83;14.15;;;8.70;80.50;;;;;;5095186;28;20336;-41
2020/12/31 03:22:08;;;;;;;23.00;13.23;;;8.60;80.50;;;;;;5095306;28;20035;-42
2020/12/31 03:24:33;;;;;;;22.98;14.40;;;8.60;80.50;;;;;;5095751;28;20028;-41
2020/12/31 03:26:59;;;;;;;24.38;13.93;;;8.60;80.60;;;;;;5095385;28;20024;-43
2020/12/31 03:29:25;;;;;;;21.25;13.50;;;8.60;80.60;;;;;;5096811;28;20040;-41
2020/12/31 03:31:50;;;;;;;24.98;13.80;;;8.50;80.70;;;;;;5096474;28;20418;-42
2020/12/31 03:34:16;;;;;;;28.25;14.75;;;8.50;80.70;;;;;;5096614;28;20038;-41
2020/12/31 03:36:42;;;;;;;20.83;13.35;;;8.50;80.80;;;;;;5094431;28;20085;-42
2020/12/31 03:39:07;;;;;;;22.23;14.50;;;8.50;80.90;;;;;;5097140;28;20032;-41
2020/12/31 03:41:33;;;;;;;25.95;14.32;;;8.50;81.00;;;;;;5095882;28;20475;-42
2020/12/31 03:43:59;;;;;;;27.42;15.35;;;8.40;80.90;;;;;;5090207;28;20028;-41
2020/12/31 03:46:24;;;;;;;24.50;14.68;;;8.40;81.00;;;;;;5081588;28;20429;-42
2020/12/31 03:48:50;;;;;;;23.98;14.45;;;8.40;81.10;;;;;;5082931;28;20315;-41
2020/12/31 03:51:16;;;;;;;27.42;15.63;;;8.40;81.10;;;;;;5079383;28;20028;-42
2020/12/31 03:53:41;;;;;;;28.05;15.43;;;8.40;81.10;;;;;;5076268;28;20426;-41
2020/12/31 03:56:07;;;;;;;33.75;16.10;;;8.40;81.10;;;;;;5076272;28;20062;-43
2020/12/31 03:58:33;;;;;;;28.50;16.60;;;8.40;81.10;;;;;;5079749;28;20025;-42
2020/12/31 04:00:58;;;;;;;27.92;16.30;;;8.40;81.20;;;;;;5091583;28;20135;-42
2020/12/31 04:03:24;;;;;;;32.92;16.70;;;8.40;81.20;;;;;;5096221;28;20503;-42
2020/12/31 04:05:50;;;;;;;39.00;17.48;;;8.30;81.10;;;;;;5096299;28;20028;-43
2020/12/31 04:08:15;;;;;;;27.52;15.60;;;8.30;81.20;;;;;;5094455;28;20032;-41
2020/12/31 04:10:41;;;;;;;32.60;16.83;;;8.30;81.20;;;;;;5093661;28;20081;-42
2020/12/31 04:13:07;;;;;;;31.25;17.75;;;8.30;81.30;;;;;;5093177;28;20039;-42
2020/12/31 04:15:32;;;;;;;32.05;17.00;;;8.30;81.30;;;;;;5093740;28;20068;-44
2020/12/31 04:17:58;;;;;;;29.63;16.08;;;8.20;81.30;;;;;;5090162;28;20024;-41
2020/12/31 04:20:24;;;;;;;26.48;16.02;;;8.20;81.30;;;;;;5091114;28;20051;-42
2020/12/31 04:22:50;;;;;;;28.05;16.63;;;8.20;81.30;;;;;;5093661;28;20023;-41
2020/12/31 04:25:15;;;;;;;27.52;16.50;;;8.20;81.30;;;;;;5094955;28;20425;-42
2020/12/31 04:27:41;;;;;;;29.77;16.95;;;8.20;81.40;;;;;;5094419;28;20012;-41
2020/12/31 04:30:07;;;;;;;33.35;16.85;;;8.20;81.40;;;;;;5094419;28;20031;-45
2020/12/31 04:32:32;;;;;;;30.33;16.55;;;8.20;81.40;;;;;;5096011;28;20016;-42
2020/12/31 04:34:58;;;;;;;30.33;17.83;;;8.20;81.40;;;;;;5096591;28;20064;-41
2020/12/31 04:37:24;;;;;;;33.42;18.92;;;8.20;81.40;;;;;;5088966;28;20020;-42
2020/12/31 04:39:49;;;;;;;39.85;20.90;;;8.20;81.40;;;;;;5095103;28;20392;-42
2020/12/31 04:42:15;;;;;;;47.25;22.15;;;8.10;81.40;;;;;;5094416;28;20024;-43
2020/12/31 04:44:43;;;;;;;46.05;21.95;;;8.10;81.50;;;;;;5094999;28;20031;-42
2020/12/31 04:47:18;;;;;;;45.63;23.90;;;8.10;81.60;;;;;;5094422;28;20016;-42
2020/12/31 04:49:50;;;;;;;47.28;23.48;;;8.10;81.60;;;;;;5095058;28;20047;-41
2020/12/31 04:52:16;;;;;;;39.40;19.70;;;8.10;81.50;;;;;;5094244;28;20016;-42
2020/12/31 04:54:43;;;;;;;40.85;18.52;;;8.10;81.50;;;;;;5094673;28;20028;-42
2020/12/31 04:57:09;;;;;;;33.08;16.80;;;8.10;81.50;;;;;;5076851;28;20020;-42
2020/12/31 04:59:36;;;;;;;37.80;17.77;;;8.10;81.50;;;;;;5091461;28;20035;-41
2020/12/31 05:02:05;;;;;;;30.90;17.67;;;8.10;81.50;;;;;;5097609;28;20039;-41
2020/12/31 05:04:31;;;;;;;33.35;17.30;;;8.10;81.50;;;;;;5096437;28;20028;-41
2020/12/31 05:06:57;;;;;;;32.45;16.73;;;8.10;81.50;;;;;;5090605;28;20077;-41
2020/12/31 05:09:23;;;;;;;32.88;18.13;;;8.10;81.40;;;;;;5082135;28;20029;-41
2020/12/31 05:11:51;;;;;;;36.28;18.67;;;8.10;81.40;;;;;;5075738;28;20023;-42
2020/12/31 05:14:34;;;;;;;35.22;18.23;;;8.10;81.40;;;;;;5076926;28;20409;-41
2020/12/31 05:17:17;;;;;;;33.30;17.77;;;8.10;81.30;;;;;;5077841;28;20028;-41
2020/12/31 05:19:43;;;;;;;34.83;17.75;;;8.10;81.30;;;;;;5078152;28;20615;-41
2020/12/31 05:22:14;;;;;;;38.67;18.48;;;8.00;81.20;;;;;;5077432;28;20128;-42
2020/12/31 05:24:42;;;;;;;39.97;20.40;;;8.00;81.20;;;;;;5078895;28;20053;-42
2020/12/31 05:27:41;;;;;;;33.42;17.65;;;8.00;81.10;;;;;;5078711;28;20073;-42
2020/12/31 05:30:08;;;;;;;29.17;17.17;;;8.00;81.10;;;;;;5055504;28;20040;-41
2020/12/31 05:32:36;;;;;;;31.27;17.15;;;8.00;81.30;;;;;;5078493;28;20035;-41
2020/12/31 05:35:14;;;;;;;33.22;18.08;;;8.00;81.40;;;;;;5078326;28;20107;-42
2020/12/31 05:37:40;;;;;;;32.85;17.83;;;7.90;81.30;;;;;;5078344;28;20035;-42
2020/12/31 05:40:09;;;;;;;32.28;17.10;;;7.90;81.40;;;;;;5078263;28;20021;-42
2020/12/31 05:42:37;;;;;;;25.52;15.93;;;7.90;81.40;;;;;;5076882;28;20032;-41
2020/12/31 05:45:28;;;;;;;30.17;16.00;;;7.90;81.40;;;;;;5076347;28;20441;-41
2020/12/31 05:47:54;;;;;;;35.03;18.45;;;7.90;81.50;;;;;;5076817;28;20025;-41
2020/12/31 05:50:25;;;;;;;33.92;20.90;;;7.90;81.50;;;;;;5090556;28;20024;-42
2020/12/31 05:52:52;;;;;;;37.70;20.52;;;7.90;81.50;;;;;;5096601;28;20056;-41
2020/12/31 05:55:19;;;;;;;32.88;17.52;;;7.90;81.50;;;;;;5097532;28;20374;-41
2020/12/31 05:57:57;;;;;;;36.40;20.95;;;7.90;81.60;;;;;;5097777;28;20057;-41
2020/12/31 06:00:27;;;;;;;32.67;17.25;;;7.90;81.70;;;;;;5097335;28;20028;-41
2020/12/31 06:02:57;;;;;;;35.22;18.20;;;7.90;81.60;;;;;;5097970;28;20031;-41
2020/12/31 06:05:24;;;;;;;35.42;20.92;;;7.90;81.60;;;;;;5096558;28;20402;-42
2020/12/31 06:07:57;;;;;;;39.85;20.13;;;7.90;81.60;;;;;;5090410;28;20356;-41
2020/12/31 06:10:24;;;;;;;46.38;23.15;;;7.90;81.60;;;;;;5091412;28;20019;-42
2020/12/31 06:12:51;;;;;;;44.28;22.33;;;7.90;81.70;;;;;;5095900;28;20031;-42
2020/12/31 06:15:20;;;;;;;44.47;22.40;;;7.90;81.60;;;;;;5094945;28;20093;-41
2020/12/31 06:17:47;;;;;;;44.83;20.98;;;7.90;81.80;;;;;;5087729;28;20349;-41
2020/12/31 06:20:15;;;;;;;39.38;20.88;;;7.90;81.80;;;;;;5090635;28;20526;-41
2020/12/31 06:22:59;;;;;;;33.42;19.58;;;8.00;81.80;;;;;;5094271;28;20039;-42
2020/12/31 06:25:41;;;;;;;39.67;20.70;;;8.00;81.80;;;;;;5093387;28;20393;-41
2020/12/31 06:28:23;;;;;;;41.33;21.42;;;8.00;81.80;;;;;;5089329;28;20095;-43
2020/12/31 06:30:50;;;;;;;38.72;19.80;;;8.00;81.60;;;;;;5079101;28;20020;-43
2020/12/31 06:33:21;;;;;;;33.63;18.92;;;8.10;81.70;;;;;;5094089;28;20028;-42
2020/12/31 06:35:54;;;;;;;41.60;20.75;;;8.10;81.70;;;;;;5095159;28;20051;-42
2020/12/31 06:38:31;;;;;;;38.70;20.88;;;8.10;81.80;;;;;;5096132;28;20056;-42
2020/12/31 06:40:57;;;;;;;39.92;18.80;;;8.10;81.60;;;;;;5089113;28;20035;-42
2020/12/31 06:43:31;;;;;;;40.25;21.27;;;8.20;81.60;;;;;;5082010;28;20333;-42
2020/12/31 06:45:57;;;;;;;39.90;23.23;;;8.20;81.40;;;;;;5082027;28;20078;-43
2020/12/31 06:48:26;;;;;;;41.92;25.27;;;8.20;81.40;;;;;;5091699;28;20070;-42
2020/12/31 06:51:11;;;;;;;46.20;27.20;;;8.20;81.20;;;;;;5094808;28;20024;-42
2020/12/31 06:53:51;;;;;;;36.97;21.48;;;8.30;81.10;;;;;;5095539;28;20081;-43
2020/12/31 06:56:36;;;;;;;52.50;27.65;;;8.30;81.20;;;;;;5091918;28;20032;-42
2020/12/31 06:59:22;;;;;;;52.60;29.73;;;8.30;81.30;;;;;;5086938;28;20078;-43
2020/12/31 07:01:48;;;;;;;43.35;26.75;;;8.40;81.30;;;;;;5095384;28;20027;-43
2020/12/31 07:04:25;;;;;;;48.42;29.42;;;8.30;81.20;;;;;;5094204;28;20486;-41
2020/12/31 07:06:51;;;;;;;48.95;32.45;;;8.40;81.10;;;;;;5081041;28;20024;-42
2020/12/31 07:09:32;;;;;;;45.25;32.80;;;8.40;81.10;;;;;;5094669;28;20479;-42
2020/12/31 07:12:00;;;;;;;42.38;28.30;;;8.40;81.10;;;;;;5093496;28;20020;-45
2020/12/31 07:14:28;;;;;;;36.10;23.92;;;8.50;80.90;;;;;;5092887;28;20043;-40
2020/12/31 07:16:54;;;;;;;36.60;22.80;;;8.50;80.90;;;;;;5092720;28;20127;-41
2020/12/31 07:19:36;;;;;;;36.28;21.75;;;8.50;80.90;;;;;;5092875;28;20154;-41
2020/12/31 07:22:15;;;;;;;38.92;22.10;;;8.50;80.90;;;;;;5094432;28;20055;-41
2020/12/31 07:24:49;;;;;;;44.30;24.15;;;8.60;81.00;;;;;;5093202;28;20035;-41
2020/12/31 07:27:45;;;;;;;54.88;24.90;;;8.60;80.80;;;;;;5096223;28;20031;-42
2020/12/31 07:30:12;;;;;;;38.80;22.40;;;8.60;80.70;;;;;;5091765;28;20075;-41
2020/12/31 07:32:52;;;;;;;41.10;22.02;;;8.60;80.60;;;;;;5096002;28;20110;-41
2020/12/31 07:35:31;;;;;;;43.47;22.90;;;8.70;80.50;;;;;;5093771;28;20028;-41
2020/12/31 07:38:08;;;;;;;35.67;19.45;;;8.70;80.50;;;;;;5095362;28;20048;-41
2020/12/31 07:40:39;;;;;;;44.10;22.92;;;8.70;80.50;;;;;;5093881;28;20032;-42
2020/12/31 07:43:07;;;;;;;40.67;23.05;;;8.70;80.40;;;;;;5096103;28;20063;-41
2020/12/31 07:45:34;;;;;;;49.05;22.77;;;8.80;80.30;;;;;;5095441;28;20028;-44
2020/12/31 07:48:01;;;;;;;40.83;20.95;;;8.80;80.50;;;;;;5096590;28;20035;-42
2020/12/31 07:50:28;;;;;;;44.05;21.77;;;8.80;80.30;;;;;;5090505;28;20032;-42
2020/12/31 07:52:58;;;;;;;52.35;24.95;;;8.80;80.00;;;;;;5076952;28;20028;-43
2020/12/31 07:55:27;;;;;;;63.55;28.42;;;8.80;79.90;;;;;;5090304;28;20348;-42
2020/12/31 07:57:57;;;;;;;81.15;33.85;;;8.80;79.90;;;;;;5092312;28;20087;-42
2020/12/31 08:00:25;;;;;;;60.75;28.80;;;8.80;80.10;;;;;;5094013;28;20056;-43
2020/12/31 08:02:55;;;;;;;47.00;22.35;;;8.90;80.20;;;;;;5092943;28;20038;-43
2020/12/31 08:05:23;;;;;;;49.53;25.67;;;8.90;79.90;;;;;;5094407;28;20035;-43
2020/12/31 08:07:53;;;;;;;43.65;22.77;;;8.90;79.90;;;;;;5094941;28;20024;-43
2020/12/31 08:10:20;;;;;;;51.92;23.52;;;8.90;79.80;;;;;;5092435;28;20063;-45
2020/12/31 08:12:58;;;;;;;45.28;22.60;;;8.90;79.80;;;;;;5093792;28;20016;-43
2020/12/31 08:15:25;;;;;;;51.72;26.65;;;8.90;79.90;;;;;;5075279;28;20028;-41
2020/12/31 08:18:03;;;;;;;41.05;22.05;;;8.90;80.10;;;;;;5075491;28;20047;-43
2020/12/31 08:20:36;;;;;;;42.53;22.80;;;8.90;80.00;;;;;;5087534;28;20113;-41
2020/12/31 08:23:04;;;;;;;42.22;22.00;;;8.90;80.10;;;;;;5094978;28;20020;-42
2020/12/31 08:25:36;;;;;;;34.05;19.38;;;8.90;80.10;;;;;;5083833;28;20024;-42
2020/12/31 08:28:07;;;;;;;36.08;20.45;;;9.00;80.30;;;;;;5094491;28;20027;-43
2020/12/31 08:30:35;;;;;;;38.05;19.92;;;9.00;80.20;;;;;;5095453;28;20422;-42
2020/12/31 08:33:04;;;;;;;30.75;17.70;;;9.00;80.20;;;;;;5099083;28;20063;-43
2020/12/31 08:35:38;;;;;;;32.80;20.35;;;9.00;80.30;;;;;;5090343;28;20295;-44
2020/12/31 08:38:06;;;;;;;36.80;19.52;;;9.00;80.30;;;;;;5093249;28;20020;-44
2020/12/31 08:40:33;;;;;;;44.30;23.73;;;9.00;80.20;;;;;;5097517;28;20118;-43
2020/12/31 08:42:59;;;;;;;52.63;28.10;;;9.00;80.20;;;;;;5093898;28;20433;-44
2020/12/31 08:45:27;;;;;;;42.95;25.92;;;9.10;80.40;;;;;;5092488;28;20089;-43
2020/12/31 08:48:05;;;;;;;40.42;23.55;;;9.10;80.50;;;;;;5098709;28;20028;-43
2020/12/31 08:50:31;;;;;;;41.45;23.77;;;9.10;80.70;;;;;;5098056;28;20062;-43
2020/12/31 08:53:01;;;;;;;39.15;21.02;;;9.10;80.50;;;;;;5096822;28;20047;-43
2020/12/31 08:55:27;;;;;;;30.43;20.07;;;9.20;80.40;;;;;;5094769;28;20035;-43
2020/12/31 08:58:10;;;;;;;48.42;24.50;;;9.10;80.30;;;;;;5097477;28;20024;-46
2020/12/31 09:00:37;;;;;;;38.53;21.15;;;9.20;80.50;;;;;;5097397;28;20028;-42
2020/12/31 09:03:03;;;;;;;46.40;23.02;;;9.20;80.70;;;;;;5097375;28;20386;-43
2020/12/31 09:05:28;;;;;;;40.30;20.80;;;9.20;80.60;;;;;;5097883;28;20028;-43
2020/12/31 09:08:07;;;;;;;36.53;19.98;;;9.20;80.40;;;;;;5098927;28;20042;-43
2020/12/31 09:10:36;;;;;;;53.33;26.73;;;9.30;80.40;;;;;;5098460;28;20337;-44
2020/12/31 09:13:03;;;;;;;55.00;27.98;;;9.30;80.50;;;;;;5097713;28;20315;-42
2020/12/31 09:15:29;;;;;;;79.25;36.03;;;9.30;80.40;;;;;;5097801;28;20024;-42
2020/12/31 09:17:55;;;;;;;76.90;34.42;;;9.40;80.30;;;;;;5097898;28;20346;-44
2020/12/31 09:20:23;;;;;;;71.00;35.05;;;9.40;80.10;;;;;;5098252;28;20044;-42
2020/12/31 09:22:50;;;;;;;56.38;29.30;;;9.40;80.00;;;;;;5098771;28;20134;-43
2020/12/31 09:25:16;;;;;;;52.65;25.35;;;9.40;80.00;;;;;;5097729;28;20028;-42
2020/12/31 09:27:45;;;;;;;51.17;25.80;;;9.40;79.80;;;;;;5086160;28;20078;-43
2020/12/31 09:30:12;;;;;;;62.25;29.67;;;9.50;79.90;;;;;;5094526;28;20040;-41
2020/12/31 09:32:38;;;;;;;51.63;26.23;;;9.50;80.60;;;;;;5095204;28;20120;-43
2020/12/31 09:35:06;;;;;;;76.40;33.00;;;9.50;80.30;;;;;;5098003;28;20126;-43
2020/12/31 09:37:57;;;;;;;74.57;33.72;;;9.60;79.60;;;;;;5091495;28;20119;-42
2020/12/31 09:40:24;;;;;;;75.20;35.15;;;9.60;79.30;;;;;;5078029;28;20086;-41
2020/12/31 09:42:50;;;;;;;66.00;31.90;;;9.60;79.60;;;;;;5089372;28;20081;-42
2020/12/31 09:45:16;;;;;;;62.58;30.52;;;9.60;79.30;;;;;;5095690;28;20032;-42
2020/12/31 09:47:42;;;;;;;71.05;32.08;;;9.60;79.20;;;;;;5097773;28;20028;-42
2020/12/31 09:50:09;;;;;;;76.68;35.05;;;9.60;79.20;;;;;;5097854;28;20452;-42
2020/12/31 09:52:36;;;;;;;74.97;36.38;;;9.60;79.10;;;;;;5097379;28;20023;-42
2020/12/31 09:55:02;;;;;;;87.93;38.95;;;9.60;79.10;;;;;;5097159;28;20338;-42
2020/12/31 09:57:28;;;;;;;88.35;39.47;;;9.60;79.10;;;;;;5097886;28;20032;-44
2020/12/31 09:59:54;;;;;;;83.05;39.50;;;9.70;79.10;;;;;;5098448;28;20033;-44
2020/12/31 10:02:20;;;;;;;104.90;44.15;;;9.70;79.00;;;;;;5096818;28;20040;-43
2020/12/31 10:04:45;;;;;;;111.93;48.08;;;9.70;79.00;;;;;;5096145;28;20115;-42
2020/12/31 10:07:11;;;;;;;91.93;41.67;;;9.70;78.90;;;;;;5090892;28;20028;-42
2020/12/31 10:09:37;;;;;;;101.22;41.47;;;9.70;78.70;;;;;;5092420;28;20068;-43
2020/12/31 10:12:03;;;;;;;95.97;40.67;;;9.70;78.90;;;;;;5095068;28;20051;-43
2020/12/31 10:14:28;;;;;;;90.78;38.38;;;9.60;78.70;;;;;;5095099;28;20106;-42
2020/12/31 10:16:54;;;;;;;101.20;44.08;;;9.60;78.80;;;;;;5094784;28;20024;-43
2020/12/31 10:19:20;;;;;;;76.43;32.97;;;9.60;79.10;;;;;;5088811;28;20044;-42
2020/12/31 10:21:47;;;;;;;84.38;34.72;;;9.60;79.00;;;;;;5083008;28;20048;-42
2020/12/31 10:24:13;;;;;;;75.35;32.72;;;9.60;79.00;;;;;;5096208;28;20030;-42
2020/12/31 10:26:39;;;;;;;83.32;37.47;;;9.60;79.00;;;;;;5097535;28;20024;-42
2020/12/31 10:29:05;;;;;;;92.20;37.75;;;9.60;79.10;;;;;;5096883;28;20318;-42
2020/12/31 10:31:31;;;;;;;94.57;39.08;;;9.60;79.10;;;;;;5097146;28;20028;-43
2020/12/31 10:33:57;;;;;;;102.70;41.00;;;9.50;79.20;;;;;;5097368;28;20504;-42
2020/12/31 10:36:23;;;;;;;104.65;40.53;;;9.50;79.30;;;;;;5097024;28;20070;-43
2020/12/31 10:38:49;;;;;;;125.80;49.10;;;9.50;79.60;;;;;;5097811;28;20071;-42
2020/12/31 10:41:15;;;;;;;124.78;49.35;;;9.50;79.80;;;;;;5092900;28;20071;-43
2020/12/31 10:43:41;;;;;;;115.72;43.83;;;9.60;80.00;;;;;;5097059;28;20106;-42
2020/12/31 10:46:07;;;;;;;116.20;48.92;;;9.60;80.10;;;;;;5096611;28;20119;-43
2020/12/31 10:48:32;;;;;;;111.75;45.35;;;9.60;80.30;;;;;;5096467;28;20024;-42
2020/12/31 10:50:58;;;;;;;113.22;45.13;;;9.70;80.40;;;;;;5094995;28;20024;-43
2020/12/31 10:53:24;;;;;;;105.00;45.22;;;9.70;80.20;;;;;;5094355;28;20344;-42
2020/12/31 10:55:50;;;;;;;120.63;44.88;;;9.80;80.00;;;;;;5095130;28;20024;-43
2020/12/31 10:58:16;;;;;;;108.60;45.40;;;9.80;80.20;;;;;;5095266;28;20028;-42
2020/12/31 11:00:41;;;;;;;107.07;42.00;;;9.80;79.40;;;;;;5094802;28;20123;-43
2020/12/31 11:03:07;;;;;;;104.18;40.90;;;9.80;79.10;;;;;;5095323;28;20334;-43
2020/12/31 11:05:33;;;;;;;97.38;43.67;;;9.80;78.90;;;;;;5096350;28;20031;-43
2020/12/31 11:07:59;;;;;;;104.90;42.08;;;9.80;79.00;;;;;;5096778;28;21514;-42
2020/12/31 11:10:25;;;;;;;87.82;36.97;;;9.80;78.90;;;;;;5096727;28;20445;-42
2020/12/31 11:12:50;;;;;;;81.32;37.78;;;9.80;78.90;;;;;;5096438;28;20078;-42
2020/12/31 11:15:16;;;;;;;69.30;33.28;;;9.70;78.90;;;;;;5096409;28;20079;-43
2020/12/31 11:17:43;;;;;;;44.67;24.88;;;9.70;78.20;;;;;;5096183;28;20024;-43
2020/12/31 11:20:09;;;;;;;64.47;36.10;;;9.70;77.30;;;;;;5096116;28;20422;-42
2020/12/31 11:22:35;;;;;;;65.57;35.30;;;9.70;76.90;;;;;;5096440;28;20060;-42
2020/12/31 11:25:01;;;;;;;59.63;31.58;;;9.60;76.90;;;;;;5096084;28;20034;-42
2020/12/31 11:27:26;;;;;;;66.90;33.92;;;9.60;76.70;;;;;;5094298;28;20028;-43
2020/12/31 11:29:52;;;;;;;88.40;41.63;;;9.60;77.10;;;;;;5095177;28;20024;-43
2020/12/31 11:32:18;;;;;;;93.65;40.83;;;9.50;77.70;;;;;;5093261;28;20602;-43
2020/12/31 11:34:44;;;;;;;76.28;38.67;;;9.50;78.00;;;;;;5094241;28;20020;-42
2020/12/31 11:37:09;;;;;;;87.03;37.85;;;9.50;78.30;;;;;;5093630;28;20063;-43
2020/12/31 11:39:35;;;;;;;93.15;40.67;;;9.60;78.50;;;;;;5094452;28;20036;-42
2020/12/31 11:42:01;;;;;;;99.38;39.30;;;9.60;78.60;;;;;;5095133;28;20122;-42
2020/12/31 11:44:26;;;;;;;76.70;36.00;;;9.60;78.70;;;;;;5096730;28;20310;-43
2020/12/31 11:46:58;;;;;;;94.90;40.38;;;9.60;78.70;;;;;;5096172;28;20413;-42
2020/12/31 11:49:23;;;;;;;99.20;41.90;;;9.50;78.70;;;;;;5096386;28;20040;-43
2020/12/31 11:51:49;;;;;;;77.13;34.47;;;9.60;78.90;;;;;;5095732;28;20076;-42
2020/12/31 11:54:15;;;;;;;80.13;34.50;;;9.50;78.90;;;;;;5095632;28;20035;-42
2020/12/31 11:56:40;;;;;;;92.50;41.33;;;9.50;78.80;;;;;;5095416;28;20153;-42
2020/12/31 11:59:06;;;;;;;96.90;41.95;;;9.50;79.00;;;;;;5095031;28;20024;-42
2020/12/31 12:01:32;;;;;;;70.05;32.53;;;9.50;79.20;;;;;;5094692;28;20043;-42
2020/12/31 12:03:58;;;;;;;60.05;29.02;;;9.50;79.20;;;;;;5094836;28;20027;-41
2020/12/31 12:06:24;;;;;;;58.75;28.70;;;9.50;79.20;;;;;;5097585;28;20162;-42
2020/12/31 12:08:49;;;;;;;55.95;29.70;;;9.60;79.30;;;;;;5098892;28;20027;-41
2020/12/31 12:11:15;;;;;;;64.75;29.65;;;9.50;79.30;;;;;;5098845;28;20066;-43
2020/12/31 12:13:41;;;;;;;68.03;33.67;;;9.50;79.30;;;;;;5099871;28;20024;-42
2020/12/31 12:16:06;;;;;;;66.35;35.13;;;9.50;79.50;;;;;;5099852;28;20414;-43
2020/12/31 12:18:32;;;;;;;80.88;38.22;;;9.50;79.70;;;;;;5099725;28;20043;-42
2020/12/31 12:20:58;;;;;;;89.25;38.85;;;9.50;79.70;;;;;;5099129;28;20079;-41
2020/12/31 12:23:24;;;;;;;95.32;40.95;;;9.50;79.60;;;;;;5099180;28;20019;-42
2020/12/31 12:25:52;;;;;;;90.53;39.75;;;9.50;79.70;;;;;;5099116;28;20451;-43
2020/12/31 12:28:18;;;;;;;96.32;43.53;;;9.50;79.90;;;;;;5099103;28;20024;-42
2020/12/31 12:30:43;;;;;;;114.65;48.25;;;9.60;79.90;;;;;;5093923;28;20074;-43
2020/12/31 12:33:09;;;;;;;120.72;47.50;;;9.60;79.80;;;;;;5097296;28;20047;-41
2020/12/31 12:35:35;;;;;;;138.82;64.35;;;9.60;79.90;;;;;;5097286;28;20104;-45
2020/12/31 12:38:01;;;;;;;140.43;58.85;;;9.60;79.90;;;;;;5093610;28;20028;-42
2020/12/31 12:40:27;;;;;;;136.63;55.70;;;9.60;79.90;;;;;;5092435;28;20042;-43